createdAt,value
2019-01-22T00:01:12.231Z,30.57
2019-01-22T00:05:22.266Z,32.17
2019-01-22T00:09:32.285Z,29.87
2019-01-22T00:13:42.674Z,32.07
2019-01-22T00:17:53.060Z,31.00
2019-01-22T00:22:03.726Z,29.73
2019-01-22T00:26:07.981Z,30.97
2019-01-22T00:30:20.142Z,33.10
2019-01-22T00:34:30.559Z,33.30
2019-01-22T00:38:34.318Z,31.07
2019-01-22T00:42:44.775Z,30.23
2019-01-22T00:46:55.729Z,31.50
2019-01-22T00:50:59.054Z,32.30
2019-01-22T00:55:08.564Z,30.80
2019-01-22T00:59:18.883Z,31.80
2019-01-22T01:03:22.287Z,30.50
2019-01-22T01:07:32.282Z,30.93
2019-01-22T01:11:42.191Z,32.27
2019-01-22T01:15:51.988Z,32.00
2019-01-22T01:20:01.999Z,31.67
2019-01-22T01:24:12.498Z,31.37
2019-01-22T01:28:16.372Z,29.93
2019-01-22T01:32:27.354Z,31.60
2019-01-22T01:36:37.947Z,31.10
2019-01-22T01:40:41.366Z,30.60
2019-01-22T01:44:51.611Z,31.10
2019-01-22T01:49:01.984Z,29.70
2019-01-22T01:53:05.822Z,29.87
2019-01-22T01:57:15.890Z,30.93
2019-01-22T02:01:26.045Z,33.47
2019-01-22T02:05:29.921Z,30.93
2019-01-22T02:09:39.487Z,30.40
2019-01-22T02:13:51.635Z,30.50
2019-01-22T02:18:11.960Z,29.40
2019-01-22T02:22:31.609Z,33.57
2019-01-22T02:26:49.122Z,33.20
2019-01-22T02:31:05.218Z,29.90
2019-01-22T02:35:17.331Z,34.10
2019-01-22T02:39:44.970Z,32.87
2019-01-22T02:44:20.952Z,29.00
2019-01-22T02:48:29.005Z,30.63
2019-01-22T02:52:59.903Z,33.50
2019-01-22T02:57:32.138Z,29.53
2019-01-22T03:01:53.750Z,29.10
2019-01-22T03:06:11.698Z,31.47
2019-01-22T03:10:34.582Z,33.60
2019-01-22T03:15:03.542Z,32.27
2019-01-22T03:19:34.970Z,32.47
2019-01-22T03:24:02.534Z,32.50
2019-01-22T03:28:31.562Z,33.30
2019-01-22T03:32:47.440Z,34.70
2019-01-22T03:37:15.842Z,32.77
2019-01-22T03:41:50.795Z,34.30
2019-01-22T03:46:23.088Z,35.90
2019-01-22T03:50:41.253Z,35.33
2019-01-22T03:55:15.991Z,34.83
2019-01-22T03:59:26.374Z,34.67
2019-01-22T04:03:36.578Z,34.60
2019-01-22T04:07:40.016Z,34.10
2019-01-22T04:11:51.700Z,35.77
2019-01-22T04:16:01.615Z,36.70
2019-01-22T04:20:12.009Z,36.40
2019-01-22T04:24:40.119Z,37.90
2019-01-22T04:29:36.879Z,39.30
2019-01-22T04:34:05.099Z,37.47
2019-01-22T04:38:45.976Z,25.47
2019-01-22T04:43:04.218Z,36.20
2019-01-22T04:47:18.350Z,33.00
2019-01-22T04:51:37.563Z,38.07
2019-01-22T04:56:19.403Z,36.20
2019-01-22T05:00:37.308Z,33.30
2019-01-22T05:05:04.844Z,35.50
2019-01-22T05:09:30.541Z,39.17
2019-01-22T05:13:59.430Z,36.70
2019-01-22T05:18:24.132Z,37.27
2019-01-22T05:22:51.565Z,31.20
2019-01-22T05:27:06.975Z,34.17
2019-01-22T05:31:45.264Z,33.30
2019-01-22T05:36:42.726Z,21.83
2019-01-22T05:41:11.934Z,28.17
2019-01-22T05:45:22.092Z,29.60
2019-01-22T05:50:23.440Z,28.43
2019-01-22T05:55:07.882Z,28.13
2019-01-22T05:59:16.856Z,26.60
2019-01-22T06:03:52.195Z,25.40
2019-01-22T06:08:21.691Z,26.13
2019-01-22T06:13:02.497Z,25.63
2019-01-22T06:17:37.218Z,27.27
2019-01-22T06:22:51.255Z,27.67
2019-01-22T06:27:05.665Z,20.87
2019-01-22T06:31:48.939Z,26.30
2019-01-22T06:36:45.277Z,25.20
2019-01-22T06:41:11.106Z,26.40
2019-01-22T06:45:43.474Z,23.20
2019-01-22T06:50:00.776Z,22.07
2019-01-22T06:54:14.913Z,20.60
2019-01-22T06:58:54.262Z,25.10
2019-01-22T07:03:16.893Z,23.13
2019-01-22T07:07:44.437Z,23.47
2019-01-22T07:12:13.352Z,19.90
2019-01-22T07:16:42.195Z,22.30
2019-01-22T07:21:09.856Z,20.97
2019-01-22T07:25:36.529Z,21.67
2019-01-22T07:29:46.040Z,22.57
2019-01-22T07:34:14.061Z,18.10
2019-01-22T07:38:33.834Z,20.50
2019-01-22T07:43:14.449Z,21.87
2019-01-22T07:47:29.695Z,19.60
2019-01-22T07:51:44.083Z,20.37
2019-01-22T07:55:58.683Z,22.17
2019-01-22T08:00:33.359Z,18.37
2019-01-22T08:05:23.867Z,21.40
2019-01-22T08:10:04.593Z,22.70
2019-01-22T08:14:33.986Z,20.30
2019-01-22T08:18:49.621Z,16.17
2019-01-22T08:23:09.495Z,20.77
2019-01-22T08:27:44.390Z,21.43
2019-01-22T08:32:17.202Z,19.80
2019-01-22T08:36:52.459Z,21.70
2019-01-22T08:41:46.076Z,17.73
2019-01-22T08:46:30.096Z,14.20
2019-01-22T08:50:53.982Z,16.50
2019-01-22T08:55:23.366Z,14.70
2019-01-22T08:59:43.718Z,15.47
2019-01-22T09:04:05.146Z,12.83
2019-01-22T09:08:23.794Z,11.80
2019-01-22T09:12:35.814Z,14.20
2019-01-22T09:17:08.046Z,13.00
2019-01-22T09:21:26.206Z,14.87
2019-01-22T09:25:39.438Z,14.57
2019-01-22T09:30:17.827Z,16.67
2019-01-22T09:34:47.044Z,14.93
2019-01-22T09:38:50.906Z,15.27
2019-01-22T09:43:01.205Z,11.30
2019-01-22T09:47:05.094Z,13.70
2019-01-22T09:51:14.962Z,14.93
2019-01-22T09:55:25.178Z,12.27
2019-01-22T09:59:35.957Z,17.20
2019-01-22T10:03:46.086Z,13.83
2019-01-22T10:07:49.809Z,14.93
2019-01-22T10:12:00.046Z,13.80
2019-01-22T10:16:11.126Z,13.80
2019-01-22T10:20:23.243Z,16.40
2019-01-22T10:24:26.963Z,14.03
2019-01-22T10:28:44.723Z,16.40
2019-01-22T10:32:54.779Z,16.37
2019-01-22T10:37:04.562Z,17.57
2019-01-22T10:41:14.498Z,16.90
2019-01-22T10:45:17.902Z,16.07
2019-01-22T10:49:27.938Z,13.50
2019-01-22T10:53:38.000Z,16.27
2019-01-22T10:57:48.843Z,16.10
2019-01-22T11:01:52.638Z,17.00
2019-01-22T11:06:02.774Z,20.43
2019-01-22T11:10:13.927Z,16.90
2019-01-22T11:14:23.321Z,16.43
2019-01-22T11:18:26.611Z,19.57
2019-01-22T11:22:36.806Z,18.10
2019-01-22T11:26:47.599Z,21.47
2019-01-22T11:31:05.163Z,16.77
2019-01-22T11:35:16.169Z,20.53
2019-01-22T11:39:19.907Z,20.13
2019-01-22T11:43:30.638Z,19.87
2019-01-22T11:47:41.304Z,20.33
2019-01-22T11:51:44.586Z,17.50
2019-01-22T11:55:54.817Z,19.40
2019-01-22T12:00:05.027Z,16.47
2019-01-22T12:04:08.387Z,22.40
2019-01-22T12:08:17.874Z,24.43
2019-01-22T12:12:28.010Z,22.73
2019-01-22T12:16:32.070Z,21.10
2019-01-22T12:20:42.438Z,19.43
2019-01-22T12:24:53.620Z,20.37
2019-01-22T12:28:56.906Z,23.47
2019-01-22T12:33:14.334Z,22.80
2019-01-22T12:37:24.747Z,22.73
2019-01-22T12:41:28.046Z,20.07
2019-01-22T12:45:39.207Z,24.17
2019-01-22T12:49:49.596Z,22.73
2019-01-22T12:53:52.886Z,21.80
2019-01-22T12:58:03.283Z,18.80
2019-01-22T13:02:13.818Z,21.57
2019-01-22T13:06:17.621Z,25.20
2019-01-22T13:10:28.338Z,22.07
2019-01-22T13:14:32.357Z,22.37
2019-01-22T13:18:43.158Z,19.50
2019-01-22T13:22:53.157Z,27.03
2019-01-22T13:26:56.962Z,25.87
2019-01-22T13:31:07.102Z,25.50
2019-01-22T13:35:23.247Z,24.07
2019-01-22T13:39:26.794Z,23.60
2019-01-22T13:43:37.078Z,24.33
2019-01-22T13:47:47.771Z,26.13
2019-01-22T13:51:51.499Z,24.90
2019-01-22T13:56:01.730Z,29.50
2019-01-22T14:00:05.998Z,28.10
2019-01-22T14:04:16.308Z,28.37
2019-01-22T14:08:19.589Z,26.17
2019-01-22T14:12:29.722Z,27.43
2019-01-22T14:16:39.843Z,24.17
2019-01-22T14:20:43.148Z,28.40
2019-01-22T14:24:53.651Z,24.50
2019-01-22T14:29:04.428Z,30.33
2019-01-22T14:33:08.617Z,29.57
2019-01-22T14:37:25.738Z,28.47
2019-01-22T14:41:35.554Z,28.40
2019-01-22T14:45:46.079Z,32.33
2019-01-22T14:49:49.365Z,29.40
2019-01-22T14:53:59.262Z,28.93
2019-01-22T14:58:09.562Z,26.87
2019-01-22T15:02:12.850Z,30.47
2019-01-22T15:06:23.214Z,28.83
2019-01-22T15:10:33.458Z,32.03
2019-01-22T15:14:37.185Z,33.00
2019-01-22T15:18:46.842Z,31.47
2019-01-22T15:22:57.064Z,33.03
2019-01-22T15:27:00.639Z,35.93
2019-01-22T15:31:10.870Z,33.93
2019-01-22T15:35:28.458Z,32.27
2019-01-22T15:39:32.487Z,31.73
2019-01-22T15:43:43.174Z,31.70
2019-01-22T15:47:46.987Z,32.10
2019-01-22T15:51:58.002Z,34.87
2019-01-22T15:56:01.734Z,30.07
2019-01-22T16:00:12.782Z,30.97
2019-01-22T16:04:23.066Z,34.20
2019-01-22T16:08:33.267Z,35.33
2019-01-22T16:12:36.874Z,31.60
2019-01-22T16:16:47.050Z,33.93
2019-01-22T16:20:57.422Z,23.70
2019-01-22T16:25:01.150Z,34.07
2019-01-22T16:29:10.914Z,32.27
2019-01-22T16:33:21.718Z,33.00
2019-01-22T16:37:31.974Z,32.57
2019-01-22T16:41:42.639Z,35.53
2019-01-22T16:45:52.266Z,31.60
2019-01-22T16:49:56.238Z,36.83
2019-01-22T16:54:06.702Z,33.30
2019-01-22T16:58:10.510Z,32.67
2019-01-22T17:02:20.134Z,35.80
2019-01-22T17:06:24.019Z,31.93
2019-01-22T17:10:34.239Z,34.50
2019-01-22T17:14:37.530Z,33.80
2019-01-22T17:18:47.647Z,33.20
2019-01-22T17:23:02.066Z,32.83
2019-01-22T17:27:07.320Z,34.13
2019-01-22T17:31:34.164Z,32.73
2019-01-22T17:35:40.307Z,37.00
2019-01-22T17:39:56.386Z,33.03
2019-01-22T17:43:59.682Z,34.60
2019-01-22T17:48:09.214Z,34.73
2019-01-22T17:52:19.330Z,36.00
2019-01-22T17:56:22.614Z,36.73
2019-01-22T18:00:33.766Z,39.27
2019-01-22T18:04:37.059Z,35.00
2019-01-22T18:08:48.286Z,34.63
2019-01-22T18:12:59.038Z,34.13
2019-01-22T18:17:02.600Z,36.00
2019-01-22T18:21:13.450Z,37.10
2019-01-22T18:25:16.819Z,35.50
2019-01-22T18:29:27.423Z,36.33
2019-01-22T18:33:37.195Z,39.47
2019-01-22T18:37:40.994Z,35.90
2019-01-22T18:41:58.050Z,34.27
2019-01-22T18:46:08.698Z,39.07
2019-01-22T18:50:20.806Z,37.43
2019-01-22T18:54:31.667Z,35.47
2019-01-22T18:58:42.018Z,36.30
2019-01-22T19:02:45.742Z,36.77
2019-01-22T19:06:56.178Z,35.03
2019-01-22T19:11:06.370Z,34.00
2019-01-22T19:15:12.378Z,35.53
2019-01-22T19:19:22.906Z,36.20
2019-01-22T19:23:39.460Z,35.07
2019-01-22T19:27:49.974Z,38.60
2019-01-22T19:31:53.974Z,36.97
2019-01-22T19:36:04.014Z,36.93
2019-01-22T19:40:16.291Z,35.17
2019-01-22T19:44:26.679Z,38.70
2019-01-22T19:48:37.023Z,35.27
2019-01-22T19:52:47.535Z,37.00
2019-01-22T19:56:51.254Z,34.90
2019-01-22T20:01:15.374Z,37.33
2019-01-22T20:05:32.843Z,35.80
2019-01-22T20:09:36.854Z,36.77
2019-01-22T20:13:47.449Z,34.60
2019-01-22T20:17:58.196Z,36.47
2019-01-22T20:22:02.251Z,35.30
2019-01-22T20:26:12.223Z,34.23
2019-01-22T20:30:28.715Z,30.10
2019-01-22T20:34:33.043Z,33.37
2019-01-22T20:38:43.635Z,35.20
2019-01-22T20:43:01.191Z,34.10
2019-01-22T20:47:04.922Z,32.87
2019-01-22T20:51:15.247Z,33.43
2019-01-22T20:55:19.723Z,35.50
2019-01-22T20:59:30.070Z,31.33
2019-01-22T21:03:39.982Z,29.90
2019-01-22T21:07:44.350Z,34.13
2019-01-22T21:11:54.654Z,35.43
2019-01-22T21:16:05.155Z,33.50
2019-01-22T21:20:09.452Z,32.90
2019-01-22T21:24:19.774Z,36.07
2019-01-22T21:28:29.839Z,33.23
2019-01-22T21:32:33.621Z,30.10
2019-01-22T21:36:44.241Z,34.10
2019-01-22T21:40:55.080Z,35.80
2019-01-22T21:45:07.732Z,29.57
2019-01-22T21:49:17.838Z,34.57
2019-01-22T21:53:28.660Z,37.63
2019-01-22T21:57:32.434Z,37.97
2019-01-22T22:01:43.216Z,34.10
2019-01-22T22:05:53.420Z,37.07
2019-01-22T22:09:57.550Z,32.97
2019-01-22T22:14:08.271Z,39.30
2019-01-22T22:18:18.956Z,38.13
2019-01-22T22:22:22.732Z,33.30
2019-01-22T22:26:32.965Z,35.20
2019-01-22T22:30:37.504Z,34.87
2019-01-22T22:34:48.108Z,34.03
2019-01-22T22:38:51.877Z,37.90
2019-01-22T22:43:01.930Z,34.90
2019-01-22T22:47:12.619Z,37.20
2019-01-22T22:51:22.848Z,35.10
2019-01-22T22:55:32.965Z,34.37
2019-01-22T22:59:36.766Z,37.80
2019-01-22T23:03:46.760Z,35.57
2019-01-22T23:07:50.538Z,36.07
2019-01-22T23:12:01.537Z,37.83
2019-01-22T23:16:05.808Z,39.10
2019-01-22T23:20:16.804Z,35.77
2019-01-22T23:24:27.476Z,32.03
2019-01-22T23:28:31.566Z,33.47
2019-01-22T23:32:42.421Z,36.33
2019-01-22T23:36:53.363Z,34.17
2019-01-22T23:40:57.136Z,37.97
2019-01-22T23:45:07.812Z,36.20
2019-01-22T23:49:18.693Z,39.33
2019-01-22T23:53:22.485Z,34.73
2019-01-22T23:57:26.272Z,37.20
